Flight EZE12B

  • Submitted By: Dave Hardy
  • Departure Airport: Birmingham (EGBB)
  • Arrival Airport: Isle Of Man / Ronaldsway (EGNS)
  • Aircraft: SB20 (G-CDEA)
  • Flight Time: 0.53
  • Date Submitted: 05/24/2009
  • Status: Accepted
Flight Details
Gross Revenue:
(23 load / £ 0.00 per unit
£ 0.00
Fuel Cost:
(1073 fuel used @ 0 / unit)
£ 0.00

Flight Details

  • VATAWARE Link: -

Additional Log Information:

View Log

[2009/05/24 16:38:00]
Flight IATA:EZE12B
Pilot Number:EZE0001
Company ICAO:EZE
Aircraft Type:JS41
PAX:23
Aircraft Registration:SB20
Departing Airport: EGBB
Destination Airport: EGNS
Online: VATSIM
Route:WHI.L10.KELLY
Flight Level:20000
16:38 Zero fuel Weight: 17982 Lbs, Fuel Weight: 5811 Lbs
16:38 VATSIM:EGBB 241620Z 15007KT 100V190 CAVOK 20/07 Q1019
16:38 VATSIM:EGNS 241620Z 23010KT CAVOK 13/09 Q1020 NOSIG
16:47 Parking Brakes off
16:47 Com1 Freq=122.95
16:52 Slew ON
16:52 Slew OFF
16:58 Com1 Freq=122.82
16:58 Com1 Freq=122.80
17:01 VR= 124 Knots
17:01 V2= 126 Knots
17:01 Take-off
17:01 Take off Weight: 23719 Lbs
17:01 Wind: 140 @ 006 Knots Heading: 145
17:01 POS N52 27 05 W001 44 43
17:01 N11 36 N12 36
17:01 Gear Up: 126 Knots
17:01 Flaps: at 126 Knots
17:02 Flaps: at 113 Knots
17:14 TOC
17:14 Fuel Weight: 5258 Lb
17:16 Wind:240@028 Knots Heading: 311 Ground Speed: 306 Knots Altitude 20187 ft
17:28 TOD
17:28 Fuel Weight: 4884 Lb
17:31 Wind:246@032 Knots Heading: 298 Ground Speed: 267 Knots Altitude 14212 ft
17:34 Flaps: at 179 Knots
17:34 Gear Down: 154 Knots
17:36 Flaps: at 166 Knots
17:38 Flaps: at 174 Knots
17:39 TouchDown:Rate -699 ft/min Speed: 130 Knots
17:39 VATSIM:EGNS 241720Z 23009KT CAVOK 13/08 Q1019 NOSIG
17:39 Land
17:39 Wind:237@009 Knots
17:39 Heading: 257
17:39 Flight Duration: 00:38
17:39 Landing Weight: 22728 Lbs
17:39 POS N54 05 00 W004 37 26
17:40 Parking brakes on
17:40 Block to Block Duration: 00:53
17:40 Final Fuel: 4737 Lbls
17:40 Spent Fuel: 1073 Lbls
17:40 Flight Length: 154 NM
17:40 TOD Land Length: 37 NM

Route Map